Airfield :
LOGIN :

Register | Disclaimer

   EN    FR    IT 

 










Legend :    VFR   Marginal VFR   IFR   Intensive IFR   Very Intensive IFR
Visi :
Ceiling :
>= 8 km
>= 3000ft
5 to 8 km
1000 to 3000 ft
1500m to 5 km
500 to 1000 ft
800 to 1500m
200 to 500 ft
< 800m
< 200 ft
Symbols :   Thunderstorms  Fog  Heavy snow  Heavy precipitations  Wind > 20 kt
SIGMETs :     Misc.  Thunderstorms  Icing  Turbulence  Mountain Waves  Volcanic Ashes






- Airport Elevation : 1504 ft
- IATA code : PNA


LEPP - Noain Pamplona

CURRENT METAR :
  • 150400Z AUTO 07004KT 9999 NCD 08/05 Q1012

EXPIRED METARs :
  • 150330Z AUTO 11003KT 090V160 9999 SCT048 09/05 Q1013
  • 150300Z AUTO VRB02KT 9999 OVC050 10/05 Q1013
  • 150230Z AUTO 20003KT 150V240 9999 BKN050 09/06 Q1013
  • 150200Z AUTO 14005KT 110V180 9999 BKN050 10/06 Q1013
  • 150130Z AUTO 13007KT 100V160 9999 BKN050 09/06 Q1013

TAF TAF LEPP
Valid from the 15 at 03:00 until the 16 at 03:00 UTC


150200Z 1503/1603 20008KT 9999 SCT050 TX12/1515Z TN06/1507Z



MET'MAP, your aeronautical weather chart ! - Copyright ORBIFLY December 2007 - Disclaimer

ORBIFLY MET'MAP TEAM :

Programming & Development : Alexandra Zaïnal
Concept & original design : Baudouin d'Aumeries
Assistance for programming : Marc-Olivier Méhu
Technical & hardware support : Manuel Goepfert

Contact : metmap@orbifly.com




SOURCES & CREDITS :

   NOAA